createdAt,value
2022-11-17T00:00:23.232Z,5.91
2022-11-17T00:03:37.413Z,5.91
2022-11-17T00:06:39.211Z,5.91
2022-11-17T00:09:41.199Z,5.92
2022-11-17T00:13:01.401Z,5.93
2022-11-17T00:16:03.121Z,5.93
2022-11-17T00:19:23.564Z,5.93
2022-11-17T00:22:25.622Z,5.94
2022-11-17T00:25:27.273Z,5.94
2022-11-17T00:28:28.859Z,5.93
2022-11-17T00:31:51.349Z,5.93
2022-11-17T00:34:52.897Z,5.94
2022-11-17T00:38:13.179Z,5.96
2022-11-17T00:41:14.942Z,5.97
2022-11-17T00:44:17.278Z,5.97
2022-11-17T00:47:18.789Z,5.97
2022-11-17T00:50:20.458Z,5.98
2022-11-17T00:53:22.041Z,5.99
2022-11-17T00:56:24.956Z,5.99
2022-11-17T00:59:26.603Z,5.99
2022-11-17T01:02:28.236Z,5.99
2022-11-17T01:05:32.948Z,5.98
2022-11-17T01:08:35.395Z,5.98
2022-11-17T01:11:36.954Z,5.97
2022-11-17T01:14:38.813Z,5.98
2022-11-17T01:17:40.549Z,5.98
2022-11-17T01:20:42.203Z,5.97
2022-11-17T01:23:45.497Z,5.97
2022-11-17T01:26:48.967Z,5.97
2022-11-17T01:29:50.551Z,5.96
2022-11-17T01:32:52.213Z,5.95
2022-11-17T01:35:53.980Z,5.96
2022-11-17T01:38:55.642Z,5.94
2022-11-17T01:42:01.432Z,5.93
2022-11-17T01:45:16.731Z,5.92
2022-11-17T01:48:18.391Z,5.91
2022-11-17T01:51:21.344Z,5.90
2022-11-17T01:54:28.045Z,5.91
2022-11-17T01:57:49.320Z,5.90
2022-11-17T02:00:53.681Z,5.91
2022-11-17T02:03:55.441Z,5.91
2022-11-17T02:07:04.854Z,5.91
2022-11-17T02:10:06.937Z,5.90
2022-11-17T02:13:09.107Z,5.90
2022-11-17T02:16:15.872Z,5.91
2022-11-17T02:19:21.597Z,5.92
2022-11-17T02:22:46.608Z,5.90
2022-11-17T02:26:10.954Z,5.88
2022-11-17T02:29:37.258Z,5.87
2022-11-17T02:32:53.802Z,5.86
2022-11-17T02:36:04.795Z,5.86
2022-11-17T02:39:41.574Z,5.86
2022-11-17T02:43:09.313Z,5.85
2022-11-17T02:46:18.575Z,5.85
2022-11-17T02:49:34.796Z,5.84
2022-11-17T02:52:36.820Z,5.83
2022-11-17T02:55:38.467Z,5.83
2022-11-17T02:58:40.066Z,5.82
2022-11-17T03:02:11.694Z,5.82
2022-11-17T03:05:19.465Z,5.80
2022-11-17T03:08:42.534Z,5.79
2022-11-17T03:11:49.385Z,5.78
2022-11-17T03:15:00.075Z,5.78
2022-11-17T03:18:17.198Z,5.77
2022-11-17T03:21:35.732Z,5.77
2022-11-17T03:24:46.899Z,5.76
2022-11-17T03:27:57.795Z,5.76
2022-11-17T03:31:03.666Z,5.77
2022-11-17T03:34:11.622Z,5.76
2022-11-17T03:37:16.709Z,5.77
2022-11-17T03:40:25.135Z,5.77
2022-11-17T03:43:28.789Z,5.77
2022-11-17T03:46:31.654Z,5.77
2022-11-17T03:49:39.290Z,5.77
2022-11-17T03:52:43.246Z,5.77
2022-11-17T03:56:11.206Z,5.77
2022-11-17T03:59:22.434Z,5.76
2022-11-17T04:02:26.220Z,5.75
2022-11-17T04:05:27.945Z,5.73
2022-11-17T04:08:30.100Z,5.73
2022-11-17T04:11:50.254Z,5.72
2022-11-17T04:15:10.506Z,5.71
2022-11-17T04:18:12.919Z,5.71
2022-11-17T04:21:14.432Z,5.71
2022-11-17T04:24:16.083Z,5.71
2022-11-17T04:27:36.323Z,5.71
2022-11-17T04:30:37.970Z,5.71
2022-11-17T04:33:42.275Z,5.70
2022-11-17T04:36:44.029Z,5.71
2022-11-17T04:39:45.779Z,5.70
2022-11-17T04:42:47.425Z,5.70
2022-11-17T04:45:49.090Z,5.71
2022-11-17T04:48:53.650Z,5.71
2022-11-17T04:51:55.311Z,5.70
2022-11-17T04:54:56.903Z,5.70
2022-11-17T04:57:58.551Z,5.70
2022-11-17T05:01:11.744Z,5.68
2022-11-17T05:04:35.850Z,5.68
2022-11-17T05:07:37.528Z,5.65
2022-11-17T05:10:58.280Z,5.65
2022-11-17T05:14:00.352Z,5.65
2022-11-17T05:17:09.363Z,5.65
2022-11-17T05:20:11.952Z,5.64
2022-11-17T05:23:32.100Z,5.63
2022-11-17T05:26:35.904Z,5.63
2022-11-17T05:29:37.577Z,5.61
2022-11-17T05:32:39.314Z,5.59
2022-11-17T05:35:41.365Z,5.57
2022-11-17T05:38:43.116Z,5.57
2022-11-17T05:41:44.771Z,5.55
2022-11-17T05:44:47.759Z,5.52
2022-11-17T05:47:49.381Z,5.52
2022-11-17T05:50:55.255Z,5.51
2022-11-17T05:53:57.067Z,5.50
2022-11-17T05:57:03.755Z,5.47
2022-11-17T06:00:06.235Z,5.43
2022-11-17T06:03:23.609Z,5.41
2022-11-17T06:06:25.256Z,5.40
2022-11-17T06:09:30.714Z,5.40
2022-11-17T06:12:32.320Z,5.41
2022-11-17T06:15:34.636Z,5.41
2022-11-17T06:18:40.975Z,5.40
2022-11-17T06:22:10.054Z,5.39
2022-11-17T06:25:07.740Z,5.38
2022-11-17T06:28:13.618Z,5.37
2022-11-17T06:31:16.506Z,5.35
2022-11-17T06:34:18.207Z,5.35
2022-11-17T06:37:19.914Z,5.34
2022-11-17T06:40:21.521Z,5.34
2022-11-17T06:43:23.130Z,5.34
2022-11-17T06:46:24.755Z,5.34
2022-11-17T06:49:26.375Z,5.34
2022-11-17T06:52:27.960Z,5.34
2022-11-17T06:55:29.789Z,5.33
2022-11-17T06:58:32.408Z,5.32
2022-11-17T07:01:34.372Z,5.30
2022-11-17T07:04:36.233Z,5.27
2022-11-17T07:07:37.997Z,5.26
2022-11-17T07:10:42.551Z,5.23
2022-11-17T07:13:46.783Z,5.22
2022-11-17T07:16:48.460Z,5.19
2022-11-17T07:19:50.126Z,5.18
2022-11-17T07:22:57.049Z,5.17
2022-11-17T07:25:59.611Z,5.16
2022-11-17T07:29:01.290Z,5.16
2022-11-17T07:32:03.141Z,5.16
2022-11-17T07:35:05.310Z,5.16
2022-11-17T07:38:07.686Z,5.16
2022-11-17T07:41:12.770Z,5.17
2022-11-17T07:44:14.452Z,5.15
2022-11-17T07:47:16.142Z,5.14
2022-11-17T07:50:17.829Z,5.14
2022-11-17T07:53:19.546Z,5.13
2022-11-17T07:56:21.171Z,5.12
2022-11-17T07:59:22.840Z,5.11
2022-11-17T08:02:25.128Z,5.11
2022-11-17T08:05:30.044Z,5.11
2022-11-17T08:08:32.790Z,5.11
2022-11-17T08:11:34.667Z,5.11
2022-11-17T08:14:36.458Z,5.10
2022-11-17T08:17:38.279Z,5.10
2022-11-17T08:20:39.988Z,5.09
2022-11-17T08:23:43.574Z,5.07
2022-11-17T08:26:45.355Z,5.07
2022-11-17T08:29:47.148Z,5.08
2022-11-17T08:32:51.645Z,5.08
2022-11-17T08:35:57.657Z,5.05
2022-11-17T08:38:59.417Z,5.04
2022-11-17T08:42:01.306Z,5.03
2022-11-17T08:45:04.224Z,5.04
2022-11-17T08:48:06.914Z,5.04
2022-11-17T08:51:09.378Z,5.05
2022-11-17T08:54:12.004Z,5.06
2022-11-17T08:57:13.834Z,5.05
2022-11-17T09:00:16.272Z,5.05
2022-11-17T09:03:17.966Z,5.04
2022-11-17T09:06:19.698Z,5.03
2022-11-17T09:09:21.626Z,5.02
2022-11-17T09:12:23.678Z,5.02
2022-11-17T09:15:25.345Z,5.04
2022-11-17T09:18:27.536Z,5.05
2022-11-17T09:21:31.450Z,5.05
2022-11-17T09:24:33.174Z,5.06
2022-11-17T09:27:35.790Z,5.06
2022-11-17T09:30:37.438Z,5.05
2022-11-17T09:33:39.659Z,5.05
2022-11-17T09:36:44.088Z,5.05
2022-11-17T09:39:46.480Z,5.02
2022-11-17T09:42:48.424Z,5.02
2022-11-17T09:45:53.544Z,5.02
2022-11-17T09:49:07.079Z,5.03
2022-11-17T09:52:36.741Z,5.03
2022-11-17T09:55:45.114Z,5.02
2022-11-17T09:58:58.234Z,5.01
2022-11-17T10:01:59.925Z,5.01
2022-11-17T10:05:01.997Z,4.99
2022-11-17T10:08:08.508Z,4.97
2022-11-17T10:11:32.657Z,4.96
2022-11-17T10:14:39.069Z,4.94
2022-11-17T10:17:42.061Z,4.95
2022-11-17T10:20:44.255Z,4.98
2022-11-17T10:23:58.573Z,4.99
2022-11-17T10:27:02.904Z,5.01
2022-11-17T10:30:19.650Z,5.00
2022-11-17T10:33:36.794Z,5.00
2022-11-17T10:36:47.712Z,5.00
2022-11-17T10:39:49.420Z,4.99
2022-11-17T10:43:05.077Z,4.97
2022-11-17T10:46:15.144Z,4.99
2022-11-17T10:49:37.763Z,5.02
2022-11-17T10:52:39.704Z,5.01
2022-11-17T10:55:41.955Z,4.99
2022-11-17T10:58:55.528Z,4.99
2022-11-17T11:01:57.820Z,4.98
2022-11-17T11:05:12.886Z,4.99
2022-11-17T11:08:22.532Z,5.00
2022-11-17T11:11:57.625Z,4.99
2022-11-17T11:15:02.686Z,5.00
2022-11-17T11:18:17.519Z,5.00
2022-11-17T11:21:56.252Z,4.98
2022-11-17T11:25:17.376Z,4.99
2022-11-17T11:28:54.654Z,4.97
2022-11-17T11:32:02.839Z,4.94
2022-11-17T11:35:29.197Z,4.91
2022-11-17T11:38:46.370Z,4.91
2022-11-17T11:42:09.846Z,4.92
2022-11-17T11:45:14.481Z,4.92
2022-11-17T11:48:20.461Z,4.94
2022-11-17T11:51:31.061Z,4.94
2022-11-17T11:54:51.085Z,4.94
2022-11-17T11:58:05.516Z,4.95
2022-11-17T12:01:09.124Z,4.95
2022-11-17T12:04:22.465Z,4.95
2022-11-17T12:07:41.318Z,4.95
2022-11-17T12:10:50.312Z,4.93
2022-11-17T12:13:54.489Z,4.91
2022-11-17T12:17:13.126Z,4.90
2022-11-17T12:20:30.187Z,4.89
2022-11-17T12:23:46.206Z,4.88
2022-11-17T12:26:47.929Z,4.85
2022-11-17T12:29:49.578Z,4.81
2022-11-17T12:32:53.780Z,4.80
2022-11-17T12:36:30.863Z,4.82
2022-11-17T12:39:54.796Z,4.83
2022-11-17T12:43:14.971Z,4.81
2022-11-17T12:46:24.354Z,4.77
2022-11-17T12:49:36.786Z,4.73
2022-11-17T12:52:57.092Z,4.70
2022-11-17T12:56:17.216Z,4.68
2022-11-17T12:59:54.409Z,4.67
2022-11-17T13:03:12.308Z,4.65
2022-11-17T13:09:37.782Z,4.62
2022-11-17T13:12:41.029Z,4.61
2022-11-17T13:15:43.841Z,4.61
2022-11-17T13:18:47.927Z,4.61
2022-11-17T13:21:58.219Z,4.61
2022-11-17T13:25:12.611Z,4.60
2022-11-17T13:28:32.069Z,4.59
2022-11-17T13:31:34.058Z,4.60
2022-11-17T13:34:47.622Z,4.60
2022-11-17T13:38:10.866Z,4.57
2022-11-17T13:41:13.646Z,4.56
2022-11-17T13:44:22.537Z,4.54
2022-11-17T13:47:50.764Z,4.52
2022-11-17T13:50:52.496Z,4.52
2022-11-17T13:54:03.962Z,4.51
2022-11-17T13:57:07.606Z,4.50
2022-11-17T14:00:16.403Z,4.50
2022-11-17T14:03:39.507Z,4.47
2022-11-17T14:06:53.685Z,4.46
2022-11-17T14:10:19.565Z,4.45
2022-11-17T14:13:27.100Z,4.43
2022-11-17T14:16:38.545Z,4.41
2022-11-17T14:19:40.674Z,4.40
2022-11-17T14:23:02.006Z,4.38
2022-11-17T14:26:04.400Z,4.35
2022-11-17T14:29:10.836Z,4.31
2022-11-17T14:32:12.522Z,4.28
2022-11-17T14:35:15.406Z,4.27
2022-11-17T14:38:19.170Z,4.26
2022-11-17T14:41:20.941Z,4.26
2022-11-17T14:44:23.153Z,4.26
2022-11-17T14:47:24.799Z,4.22
2022-11-17T14:50:26.479Z,4.19
2022-11-17T14:53:28.160Z,4.18
2022-11-17T14:56:30.065Z,4.15
2022-11-17T14:59:31.812Z,4.15
2022-11-17T15:02:34.556Z,4.14
2022-11-17T15:05:42.166Z,4.13
2022-11-17T15:08:44.449Z,4.12
2022-11-17T15:11:46.127Z,4.10
2022-11-17T15:14:47.905Z,4.11
2022-11-17T15:17:49.654Z,4.07
2022-11-17T15:21:02.829Z,4.05
2022-11-17T15:24:23.177Z,4.02
2022-11-17T15:27:26.303Z,4.01
2022-11-17T15:30:29.776Z,4.05
2022-11-17T15:33:32.879Z,4.13
2022-11-17T15:36:36.060Z,4.11
2022-11-17T15:39:39.079Z,4.06
2022-11-17T15:42:42.294Z,4.03
2022-11-17T15:45:45.393Z,4.02
2022-11-17T15:48:52.420Z,4.00
2022-11-17T15:51:55.709Z,3.99
2022-11-17T15:54:58.861Z,3.98
2022-11-17T15:58:01.932Z,3.95
2022-11-17T16:01:09.303Z,3.94
2022-11-17T16:04:15.699Z,3.93
2022-11-17T16:07:18.809Z,3.92
2022-11-17T16:10:21.889Z,3.93
2022-11-17T16:13:24.927Z,3.94
2022-11-17T16:16:31.054Z,3.94
2022-11-17T16:19:34.132Z,3.95
2022-11-17T16:22:37.232Z,3.94
2022-11-17T16:25:45.077Z,3.93
2022-11-17T16:28:48.269Z,3.94
2022-11-17T16:31:51.336Z,3.93
2022-11-17T16:34:54.328Z,3.93
2022-11-17T16:37:57.372Z,3.94
2022-11-17T16:41:01.604Z,3.95
2022-11-17T16:44:10.926Z,3.95
2022-11-17T16:47:14.003Z,3.94
2022-11-17T16:50:17.188Z,3.91
2022-11-17T16:53:20.212Z,3.92
2022-11-17T16:56:23.579Z,3.91
2022-11-17T16:59:26.584Z,3.92
2022-11-17T17:02:29.662Z,3.92
2022-11-17T17:05:36.885Z,3.92
2022-11-17T17:08:41.061Z,3.92
2022-11-17T17:11:44.411Z,3.92
2022-11-17T17:14:49.980Z,3.93
2022-11-17T17:17:53.899Z,3.92
2022-11-17T17:20:57.753Z,3.91
2022-11-17T17:24:03.587Z,3.91
2022-11-17T17:27:07.339Z,3.90
2022-11-17T17:30:11.607Z,3.89
2022-11-17T17:33:14.739Z,3.88
2022-11-17T17:36:20.594Z,3.88
2022-11-17T17:39:23.774Z,3.87
2022-11-17T17:42:28.107Z,3.87
2022-11-17T17:45:31.213Z,3.88
2022-11-17T17:48:35.581Z,3.88
2022-11-17T17:51:44.338Z,3.88
2022-11-17T17:54:47.609Z,3.88
2022-11-17T17:57:50.869Z,3.88
2022-11-17T18:00:54.273Z,3.87
2022-11-17T18:04:04.403Z,3.86
2022-11-17T18:07:07.907Z,3.85
2022-11-17T18:10:11.068Z,3.85
2022-11-17T18:13:14.060Z,3.85
2022-11-17T18:16:26.146Z,3.85
2022-11-17T18:19:32.947Z,3.85
2022-11-17T18:22:38.240Z,3.85
2022-11-17T18:25:41.233Z,3.85
2022-11-17T18:28:52.625Z,3.84
2022-11-17T18:31:55.693Z,3.82
2022-11-17T18:34:58.800Z,3.81
2022-11-17T18:42:23.098Z,3.80
2022-11-17T18:45:26.224Z,3.79
2022-11-17T18:48:33.726Z,3.78
2022-11-17T18:51:37.766Z,3.77
2022-11-17T18:55:06.460Z,3.76
2022-11-17T18:58:09.506Z,3.75
2022-11-17T19:01:14.799Z,3.75
2022-11-17T19:04:18.310Z,3.76
2022-11-17T19:07:21.378Z,3.75
2022-11-17T19:10:24.491Z,3.73
2022-11-17T19:13:30.807Z,3.73
2022-11-17T19:16:42.581Z,3.71
2022-11-17T19:19:46.944Z,3.71
2022-11-17T19:22:49.916Z,3.70
2022-11-17T19:25:52.988Z,3.68
2022-11-17T19:29:05.073Z,3.65
2022-11-17T19:32:08.230Z,3.63
2022-11-17T19:35:18.361Z,3.62
2022-11-17T19:38:24.339Z,3.61
2022-11-17T19:41:34.720Z,3.61
2022-11-17T19:44:37.800Z,3.61
2022-11-17T19:47:40.879Z,3.61
2022-11-17T19:50:44.061Z,3.59
2022-11-17T19:53:48.797Z,3.59
2022-11-17T19:56:53.531Z,3.59
2022-11-17T19:59:56.567Z,3.60
2022-11-17T20:02:59.648Z,3.61
2022-11-17T20:06:02.998Z,3.63
2022-11-17T20:09:09.157Z,3.65
2022-11-17T20:12:12.142Z,3.65
2022-11-17T20:15:32.925Z,3.65
2022-11-17T20:18:36.474Z,3.65
2022-11-17T20:21:39.772Z,3.66
2022-11-17T20:24:42.878Z,3.67
2022-11-17T20:27:45.978Z,3.66
2022-11-17T20:30:49.085Z,3.67
2022-11-17T20:33:56.460Z,3.68
2022-11-17T20:36:59.565Z,3.68
2022-11-17T20:40:02.584Z,3.68
2022-11-17T20:43:05.630Z,3.66
2022-11-17T20:46:09.390Z,3.65
2022-11-17T20:49:12.380Z,3.64
2022-11-17T20:52:15.467Z,3.62
2022-11-17T20:55:18.508Z,3.61
2022-11-17T20:58:21.979Z,3.60
2022-11-17T21:01:25.121Z,3.60
2022-11-17T21:04:28.203Z,3.59
2022-11-17T21:07:31.372Z,3.58
2022-11-17T21:10:34.534Z,3.57
2022-11-17T21:13:38.460Z,3.56
2022-11-17T21:16:46.778Z,3.53
2022-11-17T21:19:49.819Z,3.51
2022-11-17T21:22:52.856Z,3.49
2022-11-17T21:25:55.897Z,3.49
2022-11-17T21:29:03.327Z,3.48
2022-11-17T21:32:09.400Z,3.46
2022-11-17T21:35:12.369Z,3.45
2022-11-17T21:38:15.500Z,3.45
2022-11-17T21:41:20.887Z,3.45
2022-11-17T21:44:24.019Z,3.46
2022-11-17T21:47:27.460Z,3.46
2022-11-17T21:50:30.524Z,3.45
2022-11-17T21:53:33.680Z,3.45
2022-11-17T21:56:37.283Z,3.45
2022-11-17T21:59:40.697Z,3.46
2022-11-17T22:02:43.727Z,3.45
2022-11-17T22:05:46.848Z,3.46
2022-11-17T22:08:50.522Z,3.45
2022-11-17T22:11:55.724Z,3.46
2022-11-17T22:14:58.817Z,3.46
2022-11-17T22:18:02.315Z,3.47
2022-11-17T22:21:06.902Z,3.47
2022-11-17T22:24:11.971Z,3.47
2022-11-17T22:27:15.027Z,3.47
2022-11-17T22:30:18.256Z,3.47
2022-11-17T22:33:22.348Z,3.48
2022-11-17T22:36:25.561Z,3.48
2022-11-17T22:39:28.538Z,3.48
2022-11-17T22:42:31.629Z,3.47
2022-11-17T22:45:39.148Z,3.46
2022-11-17T22:48:42.196Z,3.46
2022-11-17T22:52:03.666Z,3.46
2022-11-17T22:55:07.076Z,3.45
2022-11-17T22:58:10.547Z,3.46
2022-11-17T23:01:13.619Z,3.46
2022-11-17T23:04:17.050Z,3.46
2022-11-17T23:07:20.198Z,3.45
2022-11-17T23:10:23.278Z,3.44
2022-11-17T23:13:26.244Z,3.43
2022-11-17T23:16:30.090Z,3.42
2022-11-17T23:19:33.075Z,3.41
2022-11-17T23:22:36.260Z,3.40
2022-11-17T23:25:39.499Z,3.37
2022-11-17T23:28:43.456Z,3.36
2022-11-17T23:31:46.456Z,3.36
2022-11-17T23:34:49.496Z,3.35
2022-11-17T23:37:52.622Z,3.34
2022-11-17T23:41:02.399Z,3.35
2022-11-17T23:44:05.662Z,3.36
2022-11-17T23:47:08.658Z,3.37
2022-11-17T23:50:11.669Z,3.39
2022-11-17T23:53:15.104Z,3.40
2022-11-17T23:56:22.207Z,3.40
2022-11-17T23:59:25.259Z,3.41
